createdAt,value
2018-07-09T00:00:19.640Z,13.20
2018-07-09T00:02:47.964Z,13.20
2018-07-09T00:05:16.245Z,13.00
2018-07-09T00:07:44.562Z,12.90
2018-07-09T00:10:13.436Z,12.90
2018-07-09T00:12:41.738Z,12.90
2018-07-09T00:15:10.073Z,12.90
2018-07-09T00:17:38.395Z,13.00
2018-07-09T00:20:06.713Z,13.10
2018-07-09T00:22:35.021Z,13.00
2018-07-09T00:25:03.332Z,13.00
2018-07-09T00:27:31.697Z,12.90
2018-07-09T00:30:00.034Z,12.80
2018-07-09T00:32:28.396Z,12.80
2018-07-09T00:34:56.726Z,12.80
2018-07-09T00:37:25.095Z,12.80
2018-07-09T00:39:53.466Z,12.80
2018-07-09T00:42:21.985Z,12.90
2018-07-09T00:44:50.333Z,12.90
2018-07-09T00:47:18.668Z,13.00
2018-07-09T00:49:47.028Z,13.10
2018-07-09T00:52:15.356Z,13.20
2018-07-09T00:54:43.736Z,13.20
2018-07-09T00:57:12.057Z,13.10
2018-07-09T00:59:46.967Z,13.00
2018-07-09T01:02:15.260Z,12.80
2018-07-09T01:04:43.576Z,12.70
2018-07-09T01:07:11.998Z,12.80
2018-07-09T01:09:40.303Z,12.90
2018-07-09T01:12:10.392Z,12.70
2018-07-09T01:14:39.312Z,12.60
2018-07-09T01:17:07.828Z,12.40
2018-07-09T01:19:36.144Z,12.40
2018-07-09T01:22:05.093Z,12.40
2018-07-09T01:24:33.405Z,12.30
2018-07-09T01:27:01.960Z,12.20
2018-07-09T01:29:30.288Z,12.20
2018-07-09T01:31:58.557Z,12.20
2018-07-09T01:34:26.867Z,12.30
2018-07-09T01:36:55.233Z,12.20
2018-07-09T01:39:23.531Z,12.10
2018-07-09T01:41:51.847Z,12.00
2018-07-09T01:44:20.149Z,11.90
2018-07-09T01:46:48.464Z,11.90
2018-07-09T01:49:16.788Z,11.80
2018-07-09T01:51:45.088Z,11.70
2018-07-09T01:54:13.649Z,11.70
2018-07-09T01:56:41.933Z,11.60
2018-07-09T01:59:10.264Z,11.60
2018-07-09T02:01:38.577Z,11.80
2018-07-09T02:04:06.965Z,11.90
2018-07-09T02:06:35.241Z,11.90
2018-07-09T02:09:05.348Z,11.80
2018-07-09T02:11:33.630Z,11.70
2018-07-09T02:14:01.925Z,11.70
2018-07-09T02:16:30.287Z,11.60
2018-07-09T02:18:58.616Z,11.60
2018-07-09T02:21:26.920Z,11.50
2018-07-09T02:23:55.494Z,11.50
2018-07-09T02:26:23.811Z,11.50
2018-07-09T02:28:52.192Z,11.50
2018-07-09T02:31:20.493Z,11.50
2018-07-09T02:33:48.852Z,11.50
2018-07-09T02:36:17.206Z,11.50
2018-07-09T02:38:45.536Z,11.40
2018-07-09T02:41:13.816Z,11.40
2018-07-09T02:43:42.132Z,11.40
2018-07-09T02:46:10.437Z,11.40
2018-07-09T02:48:38.766Z,11.30
2018-07-09T02:51:07.140Z,11.30
2018-07-09T02:53:35.455Z,11.20
2018-07-09T02:56:03.756Z,11.20
2018-07-09T02:58:32.041Z,11.20
2018-07-09T03:01:00.510Z,11.20
2018-07-09T03:03:30.169Z,11.20
2018-07-09T03:05:58.493Z,11.20
2018-07-09T03:08:26.809Z,11.20
2018-07-09T03:10:55.144Z,11.20
2018-07-09T03:13:23.477Z,11.20
2018-07-09T03:15:51.800Z,11.20
2018-07-09T03:18:20.149Z,11.20
2018-07-09T03:20:48.436Z,11.20
2018-07-09T03:25:44.736Z,11.10
2018-07-09T03:28:13.020Z,11.00
2018-07-09T03:30:41.326Z,11.00
2018-07-09T03:33:09.685Z,11.00
2018-07-09T03:35:37.980Z,11.00
2018-07-09T03:38:06.320Z,11.00
2018-07-09T03:40:34.632Z,11.00
2018-07-09T03:43:02.981Z,10.90
2018-07-09T03:45:31.281Z,10.90
2018-07-09T03:47:59.557Z,10.90
2018-07-09T03:50:27.872Z,10.90
2018-07-09T03:52:56.148Z,10.90
2018-07-09T03:55:24.469Z,10.80
2018-07-09T03:57:52.892Z,10.90
2018-07-09T04:00:21.233Z,10.90
2018-07-09T04:02:49.536Z,11.00
2018-07-09T04:05:17.828Z,11.00
2018-07-09T04:07:46.128Z,11.10
2018-07-09T04:10:14.436Z,11.10
2018-07-09T04:12:42.741Z,11.10
2018-07-09T04:15:11.150Z,11.20
2018-07-09T04:17:39.499Z,11.20
2018-07-09T04:20:07.880Z,11.20
2018-07-09T04:22:36.189Z,11.20
2018-07-09T04:25:04.573Z,11.30
2018-07-09T04:27:32.866Z,11.40
2018-07-09T04:30:01.172Z,11.40
2018-07-09T04:32:29.449Z,11.50
2018-07-09T04:34:57.773Z,11.60
2018-07-09T04:37:26.205Z,11.60
2018-07-09T04:39:54.624Z,11.80
2018-07-09T04:42:22.955Z,11.80
2018-07-09T04:44:51.258Z,11.90
2018-07-09T04:47:19.900Z,12.10
2018-07-09T04:49:48.192Z,12.10
2018-07-09T04:52:16.860Z,12.20
2018-07-09T04:54:45.438Z,12.30
2018-07-09T04:57:13.881Z,12.40
2018-07-09T04:59:42.248Z,12.50
2018-07-09T05:02:10.577Z,12.70
2018-07-09T05:04:39.036Z,12.80
2018-07-09T05:07:07.431Z,12.90
2018-07-09T05:09:35.724Z,12.90
2018-07-09T05:12:04.060Z,13.10
2018-07-09T05:14:32.348Z,13.20
2018-07-09T05:17:00.706Z,13.50
2018-07-09T05:19:29.016Z,13.50
2018-07-09T05:21:57.333Z,13.60
2018-07-09T05:24:25.617Z,13.70
2018-07-09T05:26:53.929Z,13.80
2018-07-09T05:29:22.205Z,14.10
2018-07-09T05:31:50.514Z,14.50
2018-07-09T05:34:18.819Z,15.10
2018-07-09T05:36:47.152Z,15.50
2018-07-09T05:39:15.445Z,15.80
2018-07-09T05:41:43.896Z,15.90
2018-07-09T05:44:12.212Z,15.90
2018-07-09T05:46:40.608Z,16.20
2018-07-09T05:49:08.972Z,16.10
2018-07-09T05:51:37.279Z,16.10
2018-07-09T05:54:05.669Z,15.80
2018-07-09T05:56:33.972Z,15.80
2018-07-09T05:59:02.340Z,16.10
2018-07-09T06:01:30.654Z,16.50
2018-07-09T06:03:58.993Z,17.00
2018-07-09T06:06:27.309Z,17.60
2018-07-09T06:08:55.592Z,17.60
2018-07-09T06:13:52.028Z,18.60
2018-07-09T06:16:20.342Z,19.00
2018-07-09T06:18:48.673Z,19.00
2018-07-09T06:21:17.008Z,18.90
2018-07-09T06:23:55.433Z,19.10
2018-07-09T06:26:30.019Z,19.10
2018-07-09T06:31:33.781Z,19.50
2018-07-09T06:34:04.263Z,19.60
2018-07-09T06:36:34.422Z,19.70
2018-07-09T06:39:08.637Z,20.20
2018-07-09T06:41:39.539Z,19.80
2018-07-09T06:44:12.257Z,20.00
2018-07-09T06:46:47.863Z,20.00
2018-07-09T06:49:21.365Z,20.20
2018-07-09T06:51:58.687Z,20.30
2018-07-09T06:54:29.933Z,20.40
2018-07-09T06:57:00.564Z,20.40
2018-07-09T06:59:30.648Z,20.40
2018-07-09T07:02:06.491Z,20.30
2018-07-09T07:04:37.316Z,20.20
2018-07-09T07:07:07.285Z,20.20
2018-07-09T07:09:38.892Z,20.30
2018-07-09T07:12:09.766Z,20.40
2018-07-09T07:14:42.435Z,20.50
2018-07-09T07:17:22.705Z,20.60
2018-07-09T07:19:54.437Z,20.80
2018-07-09T07:22:36.934Z,21.00
2018-07-09T07:25:19.677Z,20.90
2018-07-09T07:27:51.919Z,20.90
2018-07-09T07:30:26.248Z,20.80
2018-07-09T07:35:27.372Z,21.00
2018-07-09T07:37:55.815Z,21.10
2018-07-09T07:40:24.121Z,21.10
2018-07-09T07:42:52.449Z,21.20
2018-07-09T07:45:20.737Z,21.30
2018-07-09T07:47:49.068Z,21.40
2018-07-09T07:50:17.428Z,21.60
2018-07-09T07:52:45.699Z,21.90
2018-07-09T07:55:13.993Z,22.30
2018-07-09T07:57:42.300Z,22.40
2018-07-09T08:00:11.244Z,22.40
2018-07-09T08:02:39.840Z,22.40
2018-07-09T08:05:08.220Z,22.60
2018-07-09T08:07:36.777Z,22.60
2018-07-09T08:10:06.010Z,22.70
2018-07-09T08:15:02.750Z,22.70
2018-07-09T08:17:31.057Z,22.70
2018-07-09T08:22:27.396Z,22.50
2018-07-09T08:24:55.744Z,22.60
2018-07-09T08:27:24.009Z,23.00
2018-07-09T08:29:52.311Z,23.30
2018-07-09T08:32:20.596Z,23.50
2018-07-09T08:34:48.940Z,23.80
2018-07-09T08:37:17.249Z,24.20
2018-07-09T08:39:45.556Z,24.40
2018-07-09T08:42:13.853Z,24.60
2018-07-09T08:44:43.375Z,24.80
2018-07-09T08:47:11.953Z,25.20
2018-07-09T08:49:40.264Z,25.60
2018-07-09T08:52:08.548Z,26.10
2018-07-09T08:54:36.912Z,26.50
2018-07-09T08:57:10.830Z,26.70
2018-07-09T08:59:39.133Z,27.20
2018-07-09T09:02:07.484Z,27.20
2018-07-09T09:04:35.789Z,26.90
2018-07-09T09:07:04.067Z,26.60
2018-07-09T09:09:32.338Z,26.40
2018-07-09T09:12:00.646Z,26.00
2018-07-09T09:14:28.941Z,25.80
2018-07-09T09:16:57.232Z,25.50
2018-07-09T09:19:25.525Z,25.10
2018-07-09T09:21:53.837Z,24.90
2018-07-09T09:24:22.152Z,25.00
2018-07-09T09:26:50.472Z,25.00
2018-07-09T09:29:18.753Z,25.00
2018-07-09T09:31:47.037Z,24.40
2018-07-09T09:34:15.309Z,24.40
2018-07-09T09:36:43.612Z,24.30
2018-07-09T09:39:11.937Z,24.30
2018-07-09T09:41:40.367Z,24.30
2018-07-09T09:44:08.677Z,24.40
2018-07-09T09:46:37.056Z,24.30
2018-07-09T09:49:05.453Z,24.20
2018-07-09T09:51:33.772Z,24.50
2018-07-09T09:54:02.165Z,24.50
2018-07-09T09:56:30.485Z,24.40
2018-07-09T09:58:58.873Z,24.50
2018-07-09T10:01:27.189Z,24.40
2018-07-09T10:03:55.456Z,24.50
2018-07-09T10:06:23.768Z,24.50
2018-07-09T10:08:52.052Z,24.80
2018-07-09T10:11:20.369Z,25.00
2018-07-09T10:13:48.644Z,25.40
2018-07-09T10:16:16.920Z,25.70
2018-07-09T10:18:45.237Z,25.90
2018-07-09T10:21:13.518Z,26.10
2018-07-09T10:23:41.859Z,26.70
2018-07-09T10:26:10.149Z,27.00
2018-07-09T10:28:38.453Z,27.20
2018-07-09T10:31:06.808Z,26.70
2018-07-09T10:33:35.093Z,27.20
2018-07-09T10:36:03.390Z,27.60
2018-07-09T10:38:31.695Z,28.10
2018-07-09T10:41:00.013Z,28.30
2018-07-09T10:43:28.307Z,27.90
2018-07-09T10:45:56.617Z,28.30
2018-07-09T10:48:24.905Z,28.70
2018-07-09T10:50:53.257Z,29.40
2018-07-09T10:53:21.546Z,29.60
2018-07-09T10:55:49.824Z,29.40
2018-07-09T10:58:18.120Z,29.50
2018-07-09T11:00:46.472Z,29.70
2018-07-09T11:03:14.729Z,28.90
2018-07-09T11:05:43.092Z,28.80
2018-07-09T11:08:11.393Z,29.20
2018-07-09T11:10:39.736Z,29.50
2018-07-09T11:13:08.129Z,29.80
2018-07-09T11:15:36.481Z,30.20
2018-07-09T11:18:04.913Z,30.60
2018-07-09T11:20:33.204Z,30.70
2018-07-09T11:23:01.493Z,30.80
2018-07-09T11:25:29.788Z,30.90
2018-07-09T11:27:58.079Z,31.20
2018-07-09T11:30:26.401Z,31.00
2018-07-09T11:32:54.716Z,30.10
2018-07-09T11:35:23.011Z,28.70
2018-07-09T11:37:51.781Z,27.40
2018-07-09T11:40:20.074Z,27.40
2018-07-09T11:42:48.366Z,28.20
2018-07-09T11:45:16.699Z,29.20
2018-07-09T11:47:45.038Z,29.50
2018-07-09T11:50:13.382Z,29.30
2018-07-09T11:52:41.677Z,29.80
2018-07-09T11:55:09.992Z,30.50
2018-07-09T12:00:06.376Z,30.80
2018-07-09T12:02:34.672Z,30.90
2018-07-09T12:05:03.041Z,31.00
2018-07-09T12:07:31.325Z,31.30
2018-07-09T12:09:59.686Z,30.60
2018-07-09T12:12:27.967Z,30.10
2018-07-09T12:14:56.269Z,29.70
2018-07-09T12:17:24.561Z,29.60
2018-07-09T12:19:52.881Z,29.50
2018-07-09T12:22:21.163Z,28.80
2018-07-09T12:24:49.548Z,27.50
2018-07-09T12:27:17.828Z,26.90
2018-07-09T12:29:46.108Z,27.60
2018-07-09T12:32:14.391Z,28.00
2018-07-09T12:34:42.733Z,29.00
2018-07-09T12:37:11.233Z,29.30
2018-07-09T12:39:39.520Z,29.70
2018-07-09T12:42:07.885Z,30.30
2018-07-09T12:44:36.185Z,30.20
2018-07-09T12:47:04.784Z,30.30
2018-07-09T12:49:33.117Z,29.90
2018-07-09T12:52:01.394Z,29.50
2018-07-09T12:54:29.693Z,29.70
2018-07-09T12:56:58.013Z,29.90
2018-07-09T12:59:26.305Z,30.50
2018-07-09T13:01:54.597Z,30.50
2018-07-09T13:04:22.884Z,30.60
2018-07-09T13:06:52.077Z,30.40
2018-07-09T13:09:20.353Z,30.30
2018-07-09T13:11:48.669Z,30.20
2018-07-09T13:14:16.987Z,30.20
2018-07-09T13:16:45.314Z,29.80
2018-07-09T13:19:13.634Z,29.70
2018-07-09T13:21:41.961Z,29.00
2018-07-09T13:24:10.260Z,29.00
2018-07-09T13:26:38.589Z,28.50
2018-07-09T13:29:06.893Z,27.80
2018-07-09T13:31:35.217Z,27.60
2018-07-09T13:34:03.892Z,27.60
2018-07-09T13:36:32.220Z,27.50
2018-07-09T13:39:00.556Z,27.30
2018-07-09T13:41:28.866Z,27.10
2018-07-09T13:43:57.361Z,27.30
2018-07-09T13:46:25.785Z,27.20
2018-07-09T13:48:54.075Z,27.10
2018-07-09T13:51:22.437Z,26.90
2018-07-09T13:53:50.777Z,26.90
2018-07-09T13:56:19.172Z,27.10
2018-07-09T13:58:47.460Z,26.90
2018-07-09T14:01:15.753Z,26.90
2018-07-09T14:03:44.149Z,26.70
2018-07-09T14:06:12.445Z,26.20
2018-07-09T14:08:40.792Z,26.30
2018-07-09T14:11:09.089Z,26.10
2018-07-09T14:13:37.403Z,25.70
2018-07-09T14:16:05.738Z,25.80
2018-07-09T14:18:34.018Z,25.80
2018-07-09T14:21:02.292Z,25.90
2018-07-09T14:23:30.568Z,25.80
2018-07-09T14:25:58.860Z,25.80
2018-07-09T14:28:27.137Z,25.80
2018-07-09T14:30:55.433Z,26.10
2018-07-09T14:33:23.792Z,25.90
2018-07-09T14:35:52.096Z,25.60
2018-07-09T14:38:20.377Z,25.50
2018-07-09T14:40:48.649Z,25.40
2018-07-09T14:43:16.928Z,25.40
2018-07-09T14:45:45.209Z,25.30
2018-07-09T14:48:13.490Z,25.20
2018-07-09T14:50:41.798Z,25.20
2018-07-09T14:53:10.121Z,25.30
2018-07-09T14:55:38.428Z,25.30
2018-07-09T14:58:06.752Z,25.30
2018-07-09T15:00:35.068Z,25.10
2018-07-09T15:03:03.455Z,25.20
2018-07-09T15:05:31.740Z,25.00
2018-07-09T15:08:00.057Z,25.00
2018-07-09T15:10:28.349Z,24.80
2018-07-09T15:12:56.767Z,24.60
2018-07-09T15:15:25.081Z,24.50
2018-07-09T15:17:53.418Z,24.40
2018-07-09T15:20:21.757Z,24.40
2018-07-09T15:22:50.084Z,24.20
2018-07-09T15:25:18.399Z,24.10
2018-07-09T15:27:46.676Z,24.20
2018-07-09T15:30:15.041Z,24.30
2018-07-09T15:32:43.329Z,24.50
2018-07-09T15:35:11.624Z,24.30
2018-07-09T15:37:39.916Z,24.20
2018-07-09T15:40:08.269Z,24.20
2018-07-09T15:42:36.601Z,24.20
2018-07-09T15:45:05.204Z,24.40
2018-07-09T15:50:01.540Z,24.50
2018-07-09T15:52:29.880Z,24.70
2018-07-09T15:54:58.212Z,24.70
2018-07-09T15:57:26.515Z,24.50
2018-07-09T15:59:54.838Z,24.40
2018-07-09T16:02:23.137Z,24.20
2018-07-09T16:04:51.488Z,24.20
2018-07-09T16:07:19.776Z,24.20
2018-07-09T16:09:48.080Z,24.10
2018-07-09T16:12:16.363Z,24.00
2018-07-09T16:14:44.680Z,24.00
2018-07-09T16:17:12.973Z,24.00
2018-07-09T16:19:41.313Z,24.00
2018-07-09T16:22:09.692Z,24.00
2018-07-09T16:24:38.039Z,24.10
2018-07-09T16:27:06.399Z,24.10
2018-07-09T16:29:34.729Z,24.20
2018-07-09T16:32:03.064Z,24.20
2018-07-09T16:34:31.377Z,24.30
2018-07-09T16:36:59.702Z,24.20
2018-07-09T16:39:28.021Z,24.20
2018-07-09T16:41:56.312Z,24.10
2018-07-09T16:44:24.613Z,24.10
2018-07-09T16:46:53.007Z,24.10
2018-07-09T16:49:21.211Z,24.10
2018-07-09T16:51:49.516Z,24.00
2018-07-09T16:54:17.861Z,24.00
2018-07-09T16:56:46.172Z,24.00
2018-07-09T16:59:14.472Z,23.90
2018-07-09T17:01:42.797Z,23.90
2018-07-09T17:04:11.109Z,23.80
2018-07-09T17:06:39.427Z,23.90
2018-07-09T17:09:07.745Z,23.70
2018-07-09T17:11:36.165Z,23.80
2018-07-09T17:14:04.522Z,23.70
2018-07-09T17:16:32.869Z,23.70
2018-07-09T17:19:01.171Z,23.60
2018-07-09T17:21:29.507Z,23.50
2018-07-09T17:23:57.793Z,23.50
2018-07-09T17:26:26.199Z,23.50
2018-07-09T17:28:54.447Z,23.60
2018-07-09T17:31:25.309Z,23.60
2018-07-09T17:33:53.762Z,23.60
2018-07-09T17:36:22.075Z,23.50
2018-07-09T17:38:50.463Z,23.40
2018-07-09T17:41:18.697Z,23.30
2018-07-09T17:43:47.009Z,23.20
2018-07-09T17:46:15.389Z,23.20
2018-07-09T17:48:43.693Z,23.20
2018-07-09T17:51:11.996Z,23.10
2018-07-09T17:53:40.335Z,23.10
2018-07-09T17:56:08.670Z,23.00
2018-07-09T17:58:36.960Z,23.10
2018-07-09T18:01:05.323Z,23.10
2018-07-09T18:03:33.645Z,23.20
2018-07-09T18:06:01.944Z,23.10
2018-07-09T18:10:58.485Z,23.10
2018-07-09T18:13:26.795Z,23.00
2018-07-09T18:15:55.105Z,22.90
2018-07-09T18:18:23.380Z,22.90
2018-07-09T18:20:51.696Z,22.80
2018-07-09T18:23:20.069Z,22.80
2018-07-09T18:25:48.477Z,22.80
2018-07-09T18:28:16.909Z,22.70
2018-07-09T18:30:45.284Z,22.60
2018-07-09T18:33:13.604Z,22.50
2018-07-09T18:35:42.133Z,22.50
2018-07-09T18:38:10.220Z,22.40
2018-07-09T18:40:38.612Z,22.30
2018-07-09T18:43:06.961Z,22.30
2018-07-09T18:45:35.290Z,22.20
2018-07-09T18:48:03.618Z,22.20
2018-07-09T18:50:31.897Z,22.10
2018-07-09T18:53:00.200Z,22.10
2018-07-09T18:55:28.507Z,22.00
2018-07-09T18:57:56.830Z,22.00
2018-07-09T19:00:25.131Z,21.90
2018-07-09T19:02:53.454Z,21.90
2018-07-09T19:06:30.021Z,21.90
2018-07-09T19:08:58.615Z,21.80
2018-07-09T19:11:26.937Z,21.60
2018-07-09T19:13:55.265Z,21.50
2018-07-09T19:16:23.608Z,21.20
2018-07-09T19:19:03.166Z,21.00
2018-07-09T19:21:42.840Z,20.90
2018-07-09T19:24:11.527Z,20.90
2018-07-09T19:26:39.425Z,20.80
2018-07-09T19:29:06.668Z,20.60
2018-07-09T19:31:33.940Z,20.50
2018-07-09T19:34:01.212Z,20.30
2018-07-09T19:36:28.481Z,20.10
2018-07-09T19:38:55.739Z,19.90
2018-07-09T19:41:22.979Z,19.80
2018-07-09T19:43:50.245Z,19.70
2018-07-09T19:46:17.543Z,19.60
2018-07-09T19:48:44.807Z,19.50
2018-07-09T19:51:12.058Z,19.50
2018-07-09T19:53:39.311Z,19.40
2018-07-09T19:56:06.595Z,19.40
2018-07-09T19:58:33.851Z,19.30
2018-07-09T20:01:01.081Z,19.40
2018-07-09T20:03:28.351Z,19.30
2018-07-09T20:05:55.588Z,19.40
2018-07-09T20:08:27.074Z,19.30
2018-07-09T20:10:59.551Z,19.10
2018-07-09T20:13:35.913Z,19.10
2018-07-09T20:16:08.666Z,19.00
2018-07-09T20:18:35.924Z,18.90
2018-07-09T20:21:03.174Z,18.90
2018-07-09T20:23:30.449Z,18.80
2018-07-09T20:26:01.541Z,18.80
2018-07-09T20:28:28.800Z,18.70
2018-07-09T20:30:56.149Z,18.70
2018-07-09T20:33:23.420Z,18.70
2018-07-09T20:35:50.714Z,18.60
2018-07-09T20:38:18.012Z,18.50
2018-07-09T20:40:45.259Z,18.50
2018-07-09T20:43:12.517Z,18.50
2018-07-09T20:45:39.783Z,18.50
2018-07-09T20:48:07.033Z,18.30
2018-07-09T20:50:34.277Z,18.30
2018-07-09T20:53:01.541Z,18.10
2018-07-09T20:55:28.841Z,18.00
2018-07-09T20:57:56.105Z,17.90
2018-07-09T21:00:23.350Z,17.80
2018-07-09T21:02:50.589Z,17.70
2018-07-09T21:05:17.857Z,17.60
2018-07-09T21:07:45.887Z,17.50
2018-07-09T21:10:14.294Z,17.50
2018-07-09T21:12:54.123Z,17.50
2018-07-09T21:15:23.087Z,17.50
2018-07-09T21:17:51.836Z,17.40
2018-07-09T21:20:20.528Z,17.40
2018-07-09T21:22:48.927Z,17.40
2018-07-09T21:25:17.398Z,17.40
2018-07-09T21:27:45.193Z,17.40
2018-07-09T21:30:13.179Z,17.40
2018-07-09T21:32:40.935Z,17.50
2018-07-09T21:35:08.642Z,17.40
2018-07-09T21:37:37.709Z,17.30
2018-07-09T21:40:05.283Z,17.10
2018-07-09T21:42:33.394Z,17.20
2018-07-09T21:45:01.164Z,17.20
2018-07-09T21:47:29.045Z,17.30
2018-07-09T21:49:57.124Z,17.30
2018-07-09T21:52:24.940Z,17.30
2018-07-09T21:54:52.233Z,17.30
2018-07-09T21:57:19.476Z,17.20
2018-07-09T21:59:46.734Z,17.10
2018-07-09T22:02:13.986Z,17.00
2018-07-09T22:04:41.243Z,16.90
2018-07-09T22:07:08.491Z,17.00
2018-07-09T22:09:35.753Z,17.00
2018-07-09T22:12:03.004Z,16.90
2018-07-09T22:14:30.308Z,16.90
2018-07-09T22:16:57.557Z,16.70
2018-07-09T22:19:24.825Z,16.80
2018-07-09T22:21:52.068Z,16.70
2018-07-09T22:24:19.319Z,16.80
2018-07-09T22:26:46.561Z,16.80
2018-07-09T22:29:13.824Z,16.70
2018-07-09T22:31:42.132Z,16.70
2018-07-09T22:34:10.429Z,16.80
2018-07-09T22:36:38.728Z,16.90
2018-07-09T22:39:07.025Z,16.90
2018-07-09T22:44:15.506Z,16.80
2018-07-09T22:46:43.823Z,16.70
2018-07-09T22:49:12.197Z,16.60
2018-07-09T22:51:40.512Z,16.60
2018-07-09T22:54:08.791Z,16.50
2018-07-09T22:56:37.117Z,16.50
2018-07-09T22:59:05.422Z,16.40
2018-07-09T23:01:35.717Z,16.40
2018-07-09T23:04:04.129Z,16.40
2018-07-09T23:06:32.432Z,16.40
2018-07-09T23:09:12.026Z,16.30
2018-07-09T23:14:57.718Z,16.30
2018-07-09T23:17:37.413Z,16.30
2018-07-09T23:22:14.054Z,16.20
2018-07-09T23:24:41.328Z,16.20
2018-07-09T23:29:36.129Z,16.20
2018-07-09T23:32:03.433Z,16.20
2018-07-09T23:34:30.704Z,16.20
2018-07-09T23:36:57.977Z,16.10
2018-07-09T23:39:25.238Z,16.10
2018-07-09T23:41:52.497Z,16.10
2018-07-09T23:44:19.732Z,16.10
2018-07-09T23:46:47.025Z,16.10
2018-07-09T23:49:14.255Z,16.00
2018-07-09T23:51:41.532Z,16.00
2018-07-09T23:54:08.787Z,15.90
2018-07-09T23:56:54.249Z,15.90
2018-07-09T23:59:33.933Z,15.90
